sensor_id;sensor_type;location;lat;lon;timestamp;temperature;humidity
69715;HTU21D;56981;53.532;49.398;2023-03-03T00:00:37;-4.76;77.05
69715;HTU21D;56981;53.532;49.398;2023-03-03T00:03:06;-4.73;76.92
69715;HTU21D;56981;53.532;49.398;2023-03-03T00:05:33;-4.66;77.34
69715;HTU21D;56981;53.532;49.398;2023-03-03T00:08:00;-4.61;77.29
69715;HTU21D;56981;53.532;49.398;2023-03-03T00:10:27;-4.57;76.86
69715;HTU21D;56981;53.532;49.398;2023-03-03T00:12:53;-4.54;76.82
69715;HTU21D;56981;53.532;49.398;2023-03-03T00:15:23;-4.51;77.18
69715;HTU21D;56981;53.532;49.398;2023-03-03T00:17:49;-4.45;77.30
69715;HTU21D;56981;53.532;49.398;2023-03-03T00:20:35;-4.43;76.92
69715;HTU21D;56981;53.532;49.398;2023-03-03T00:23:25;-4.43;76.23
69715;HTU21D;56981;53.532;49.398;2023-03-03T00:25:53;-4.41;76.51
69715;HTU21D;56981;53.532;49.398;2023-03-03T00:28:31;-4.39;76.52
69715;HTU21D;56981;53.532;49.398;2023-03-03T00:30:59;-4.40;76.37
69715;HTU21D;56981;53.532;49.398;2023-03-03T00:33:31;-4.40;76.54
69715;HTU21D;56981;53.532;49.398;2023-03-03T00:38:47;-4.53;76.95
69715;HTU21D;56981;53.532;49.398;2023-03-03T00:41:22;-4.52;77.06
69715;HTU21D;56981;53.532;49.398;2023-03-03T00:43:49;-4.56;77.19
69715;HTU21D;56981;53.532;49.398;2023-03-03T00:46:20;-4.60;77.52
69715;HTU21D;56981;53.532;49.398;2023-03-03T00:48:47;-4.63;78.12
69715;HTU21D;56981;53.532;49.398;2023-03-03T00:53:51;-4.68;78.58
69715;HTU21D;56981;53.532;49.398;2023-03-03T00:56:18;-4.68;78.85
69715;HTU21D;56981;53.532;49.398;2023-03-03T00:58:44;-4.72;79.14
69715;HTU21D;56981;53.532;49.398;2023-03-03T01:01:14;-4.68;79.42
69715;HTU21D;56981;53.532;49.398;2023-03-03T01:03:40;-4.66;79.53
69715;HTU21D;56981;53.532;49.398;2023-03-03T01:06:06;-4.63;80.34
69715;HTU21D;56981;53.532;49.398;2023-03-03T01:08:32;-4.64;80.23
69715;HTU21D;56981;53.532;49.398;2023-03-03T01:11:25;-4.64;80.43
69715;HTU21D;56981;53.532;49.398;2023-03-03T01:13:53;-4.58;80.48
69715;HTU21D;56981;53.532;49.398;2023-03-03T01:16:19;-4.53;80.30
69715;HTU21D;56981;53.532;49.398;2023-03-03T01:18:46;-4.52;80.40
69715;HTU21D;56981;53.532;49.398;2023-03-03T01:21:12;-4.49;80.11
69715;HTU21D;56981;53.532;49.398;2023-03-03T01:23:38;-4.48;80.41
69715;HTU21D;56981;53.532;49.398;2023-03-03T01:26:05;-4.48;80.36
69715;HTU21D;56981;53.532;49.398;2023-03-03T01:28:32;-4.51;80.37
69715;HTU21D;56981;53.532;49.398;2023-03-03T01:31:03;-4.50;80.30
69715;HTU21D;56981;53.532;49.398;2023-03-03T01:33:30;-4.48;80.42
69715;HTU21D;56981;53.532;49.398;2023-03-03T01:35:56;-4.49;80.44
69715;HTU21D;56981;53.532;49.398;2023-03-03T01:38:22;-4.50;80.62
69715;HTU21D;56981;53.532;49.398;2023-03-03T01:40:57;-4.51;80.74
69715;HTU21D;56981;53.532;49.398;2023-03-03T01:43:26;-4.51;80.82
69715;HTU21D;56981;53.532;49.398;2023-03-03T01:51:10;-4.43;80.65
69715;HTU21D;56981;53.532;49.398;2023-03-03T01:53:46;-4.51;80.99
69715;HTU21D;56981;53.532;49.398;2023-03-03T01:56:12;-4.55;80.90
69715;HTU21D;56981;53.532;49.398;2023-03-03T01:58:42;-4.57;80.85
69715;HTU21D;56981;53.532;49.398;2023-03-03T02:01:13;-4.57;80.87
69715;HTU21D;56981;53.532;49.398;2023-03-03T02:03:40;-4.60;80.72
69715;HTU21D;56981;53.532;49.398;2023-03-03T02:06:09;-4.65;81.04
69715;HTU21D;56981;53.532;49.398;2023-03-03T02:08:44;-4.71;81.40
69715;HTU21D;56981;53.532;49.398;2023-03-03T02:11:15;-4.72;81.67
69715;HTU21D;56981;53.532;49.398;2023-03-03T02:13:41;-4.72;81.97
69715;HTU21D;56981;53.532;49.398;2023-03-03T02:16:07;-4.73;81.60
69715;HTU21D;56981;53.532;49.398;2023-03-03T02:18:33;-4.75;81.68
69715;HTU21D;56981;53.532;49.398;2023-03-03T02:21:10;-4.71;81.59
69715;HTU21D;56981;53.532;49.398;2023-03-03T02:26:17;-4.74;81.70
69715;HTU21D;56981;53.532;49.398;2023-03-03T02:28:44;-4.74;82.29
69715;HTU21D;56981;53.532;49.398;2023-03-03T02:31:13;-4.72;81.59
69715;HTU21D;56981;53.532;49.398;2023-03-03T02:33:45;-4.67;81.68
69715;HTU21D;56981;53.532;49.398;2023-03-03T02:36:35;-4.64;81.13
69715;HTU21D;56981;53.532;49.398;2023-03-03T02:39:17;-4.60;80.98
69715;HTU21D;56981;53.532;49.398;2023-03-03T02:44:31;-4.58;80.41
69715;HTU21D;56981;53.532;49.398;2023-03-03T02:46:58;-4.56;80.46
69715;HTU21D;56981;53.532;49.398;2023-03-03T02:49:27;-4.55;80.52
69715;HTU21D;56981;53.532;49.398;2023-03-03T02:51:54;-4.53;80.81
69715;HTU21D;56981;53.532;49.398;2023-03-03T02:54:22;-4.50;80.40
69715;HTU21D;56981;53.532;49.398;2023-03-03T02:56:48;-4.46;80.44
69715;HTU21D;56981;53.532;49.398;2023-03-03T02:59:15;-4.42;79.78
69715;HTU21D;56981;53.532;49.398;2023-03-03T03:01:41;-4.41;79.34
69715;HTU21D;56981;53.532;49.398;2023-03-03T03:04:11;-4.46;80.05
69715;HTU21D;56981;53.532;49.398;2023-03-03T03:06:38;-4.43;79.56
69715;HTU21D;56981;53.532;49.398;2023-03-03T03:09:07;-4.46;79.56
69715;HTU21D;56981;53.532;49.398;2023-03-03T03:11:33;-4.49;79.77
69715;HTU21D;56981;53.532;49.398;2023-03-03T03:14:07;-4.46;79.78
69715;HTU21D;56981;53.532;49.398;2023-03-03T03:16:34;-4.46;79.75
69715;HTU21D;56981;53.532;49.398;2023-03-03T03:19:01;-4.53;80.13
69715;HTU21D;56981;53.532;49.398;2023-03-03T03:21:28;-4.52;80.06
69715;HTU21D;56981;53.532;49.398;2023-03-03T03:23:54;-4.51;80.10
69715;HTU21D;56981;53.532;49.398;2023-03-03T03:26:20;-4.49;79.87
69715;HTU21D;56981;53.532;49.398;2023-03-03T03:28:47;-4.49;79.91
69715;HTU21D;56981;53.532;49.398;2023-03-03T03:31:14;-4.53;79.51
69715;HTU21D;56981;53.532;49.398;2023-03-03T03:33:40;-4.52;79.49
69715;HTU21D;56981;53.532;49.398;2023-03-03T03:36:07;-4.45;79.04
69715;HTU21D;56981;53.532;49.398;2023-03-03T03:38:34;-4.41;78.94
69715;HTU21D;56981;53.532;49.398;2023-03-03T03:41:04;-4.41;78.60
69715;HTU21D;56981;53.532;49.398;2023-03-03T03:43:31;-4.40;79.02
69715;HTU21D;56981;53.532;49.398;2023-03-03T03:45:57;-4.35;78.81
69715;HTU21D;56981;53.532;49.398;2023-03-03T03:48:23;-4.29;78.38
69715;HTU21D;56981;53.532;49.398;2023-03-03T03:50:49;-4.28;78.30
69715;HTU21D;56981;53.532;49.398;2023-03-03T03:53:16;-4.30;77.56
69715;HTU21D;56981;53.532;49.398;2023-03-03T03:55:43;-4.29;77.77
69715;HTU21D;56981;53.532;49.398;2023-03-03T03:58:16;-4.19;77.86
69715;HTU21D;56981;53.532;49.398;2023-03-03T04:00:44;-4.19;77.50
69715;HTU21D;56981;53.532;49.398;2023-03-03T04:03:11;-4.12;77.35
69715;HTU21D;56981;53.532;49.398;2023-03-03T04:05:39;-4.12;76.59
69715;HTU21D;56981;53.532;49.398;2023-03-03T04:08:05;-4.11;76.70
69715;HTU21D;56981;53.532;49.398;2023-03-03T04:10:31;-4.08;76.05
69715;HTU21D;56981;53.532;49.398;2023-03-03T04:12:57;-4.02;76.44
69715;HTU21D;56981;53.532;49.398;2023-03-03T04:15:23;-3.96;75.95
69715;HTU21D;56981;53.532;49.398;2023-03-03T04:17:49;-3.87;75.05
69715;HTU21D;56981;53.532;49.398;2023-03-03T04:20:16;-3.87;75.29
69715;HTU21D;56981;53.532;49.398;2023-03-03T04:22:43;-3.89;75.11
69715;HTU21D;56981;53.532;49.398;2023-03-03T04:25:14;-3.90;74.44
69715;HTU21D;56981;53.532;49.398;2023-03-03T04:27:41;-3.80;74.09
69715;HTU21D;56981;53.532;49.398;2023-03-03T04:30:08;-3.85;74.24
69715;HTU21D;56981;53.532;49.398;2023-03-03T04:32:35;-3.77;74.27
69715;HTU21D;56981;53.532;49.398;2023-03-03T04:35:01;-3.64;73.49
69715;HTU21D;56981;53.532;49.398;2023-03-03T04:37:27;-3.63;73.51
69715;HTU21D;56981;53.532;49.398;2023-03-03T04:39:54;-3.60;73.26
69715;HTU21D;56981;53.532;49.398;2023-03-03T04:42:20;-3.61;73.13
69715;HTU21D;56981;53.532;49.398;2023-03-03T04:44:46;-3.57;72.79
69715;HTU21D;56981;53.532;49.398;2023-03-03T04:47:12;-3.45;73.73
69715;HTU21D;56981;53.532;49.398;2023-03-03T04:49:38;-3.43;72.26
69715;HTU21D;56981;53.532;49.398;2023-03-03T04:52:04;-3.40;72.19
69715;HTU21D;56981;53.532;49.398;2023-03-03T04:54:30;-3.30;72.11
69715;HTU21D;56981;53.532;49.398;2023-03-03T04:56:56;-3.20;71.84
69715;HTU21D;56981;53.532;49.398;2023-03-03T04:59:23;-3.18;71.81
69715;HTU21D;56981;53.532;49.398;2023-03-03T05:01:49;-3.23;72.40
69715;HTU21D;56981;53.532;49.398;2023-03-03T05:04:16;-3.24;72.06
69715;HTU21D;56981;53.532;49.398;2023-03-03T05:06:42;-3.31;72.36
69715;HTU21D;56981;53.532;49.398;2023-03-03T05:09:08;-3.34;72.90
69715;HTU21D;56981;53.532;49.398;2023-03-03T05:11:34;-3.28;73.00
69715;HTU21D;56981;53.532;49.398;2023-03-03T05:14:00;-3.37;73.98
69715;HTU21D;56981;53.532;49.398;2023-03-03T05:16:29;-3.31;74.08
69715;HTU21D;56981;53.532;49.398;2023-03-03T05:18:55;-3.39;74.26
69715;HTU21D;56981;53.532;49.398;2023-03-03T05:21:21;-3.32;74.45
69715;HTU21D;56981;53.532;49.398;2023-03-03T05:23:47;-3.38;75.54
69715;HTU21D;56981;53.532;49.398;2023-03-03T05:26:13;-3.28;74.55
69715;HTU21D;56981;53.532;49.398;2023-03-03T05:28:39;-3.28;74.13
69715;HTU21D;56981;53.532;49.398;2023-03-03T05:31:05;-3.26;74.53
69715;HTU21D;56981;53.532;49.398;2023-03-03T05:33:31;-3.32;74.91
69715;HTU21D;56981;53.532;49.398;2023-03-03T05:35:57;-3.30;74.47
69715;HTU21D;56981;53.532;49.398;2023-03-03T05:38:24;-3.25;74.86
69715;HTU21D;56981;53.532;49.398;2023-03-03T05:40:50;-3.18;74.93
69715;HTU21D;56981;53.532;49.398;2023-03-03T05:43:16;-3.09;74.44
69715;HTU21D;56981;53.532;49.398;2023-03-03T05:45:42;-3.08;75.38
69715;HTU21D;56981;53.532;49.398;2023-03-03T05:48:08;-3.16;75.96
69715;HTU21D;56981;53.532;49.398;2023-03-03T05:50:36;-3.32;76.77
69715;HTU21D;56981;53.532;49.398;2023-03-03T05:53:02;-3.36;77.84
69715;HTU21D;56981;53.532;49.398;2023-03-03T05:55:29;-3.26;77.60
69715;HTU21D;56981;53.532;49.398;2023-03-03T05:57:55;-3.04;76.98
69715;HTU21D;56981;53.532;49.398;2023-03-03T06:00:21;-3.05;77.01
69715;HTU21D;56981;53.532;49.398;2023-03-03T06:02:47;-2.95;76.62
69715;HTU21D;56981;53.532;49.398;2023-03-03T06:05:13;-2.91;76.63
69715;HTU21D;56981;53.532;49.398;2023-03-03T06:07:39;-3.09;77.65
69715;HTU21D;56981;53.532;49.398;2023-03-03T06:10:06;-2.88;77.05
69715;HTU21D;56981;53.532;49.398;2023-03-03T06:12:32;-2.67;76.22
69715;HTU21D;56981;53.532;49.398;2023-03-03T06:14:58;-2.53;75.25
69715;HTU21D;56981;53.532;49.398;2023-03-03T06:17:24;-2.17;73.92
69715;HTU21D;56981;53.532;49.398;2023-03-03T06:19:50;-2.13;73.61
69715;HTU21D;56981;53.532;49.398;2023-03-03T06:22:16;-2.27;74.27
69715;HTU21D;56981;53.532;49.398;2023-03-03T06:24:42;-2.20;74.04
69715;HTU21D;56981;53.532;49.398;2023-03-03T06:27:08;-2.29;74.00
69715;HTU21D;56981;53.532;49.398;2023-03-03T06:29:34;-2.33;74.73
69715;HTU21D;56981;53.532;49.398;2023-03-03T06:32:00;-2.16;74.69
69715;HTU21D;56981;53.532;49.398;2023-03-03T06:34:26;-1.99;73.83
69715;HTU21D;56981;53.532;49.398;2023-03-03T06:36:53;-1.93;73.63
69715;HTU21D;56981;53.532;49.398;2023-03-03T06:39:19;-1.79;72.99
69715;HTU21D;56981;53.532;49.398;2023-03-03T06:41:45;-1.83;73.06
69715;HTU21D;56981;53.532;49.398;2023-03-03T06:44:11;-1.69;72.89
69715;HTU21D;56981;53.532;49.398;2023-03-03T06:46:37;-1.62;73.09
69715;HTU21D;56981;53.532;49.398;2023-03-03T06:49:03;-1.54;72.64
69715;HTU21D;56981;53.532;49.398;2023-03-03T06:51:32;-1.43;72.09
69715;HTU21D;56981;53.532;49.398;2023-03-03T06:54:11;-1.38;72.38
69715;HTU21D;56981;53.532;49.398;2023-03-03T06:56:38;-1.35;72.45
69715;HTU21D;56981;53.532;49.398;2023-03-03T06:59:14;-1.04;71.62
69715;HTU21D;56981;53.532;49.398;2023-03-03T07:01:42;-0.85;71.46
69715;HTU21D;56981;53.532;49.398;2023-03-03T07:04:27;-0.81;70.51
69715;HTU21D;56981;53.532;49.398;2023-03-03T07:06:55;-0.75;70.93
69715;HTU21D;56981;53.532;49.398;2023-03-03T07:09:26;-0.64;70.15
69715;HTU21D;56981;53.532;49.398;2023-03-03T07:12:09;-0.67;69.84
69715;HTU21D;56981;53.532;49.398;2023-03-03T07:14:45;-0.50;69.94
69715;HTU21D;56981;53.532;49.398;2023-03-03T07:17:17;-0.27;68.77
69715;HTU21D;56981;53.532;49.398;2023-03-03T07:19:44;-0.27;68.68
69715;HTU21D;56981;53.532;49.398;2023-03-03T07:22:17;-0.21;69.10
69715;HTU21D;56981;53.532;49.398;2023-03-03T07:24:45;-0.12;68.11
69715;HTU21D;56981;53.532;49.398;2023-03-03T07:27:21;-0.14;68.61
69715;HTU21D;56981;53.532;49.398;2023-03-03T07:29:51;-0.19;69.07
69715;HTU21D;56981;53.532;49.398;2023-03-03T07:32:40;0.25;67.31
69715;HTU21D;56981;53.532;49.398;2023-03-03T07:37:55;0.36;66.94
69715;HTU21D;56981;53.532;49.398;2023-03-03T07:42:48;0.98;64.14
69715;HTU21D;56981;53.532;49.398;2023-03-03T07:45:30;1.05;63.81
69715;HTU21D;56981;53.532;49.398;2023-03-03T07:50:32;1.07;63.95
69715;HTU21D;56981;53.532;49.398;2023-03-03T07:53:00;0.48;65.62
69715;HTU21D;56981;53.532;49.398;2023-03-03T07:58:01;0.24;67.13
69715;HTU21D;56981;53.532;49.398;2023-03-03T08:03:18;0.78;65.46
69715;HTU21D;56981;53.532;49.398;2023-03-03T08:05:49;0.77;65.69
69715;HTU21D;56981;53.532;49.398;2023-03-03T08:08:30;0.90;65.88
69715;HTU21D;56981;53.532;49.398;2023-03-03T08:10:59;0.77;65.57
69715;HTU21D;56981;53.532;49.398;2023-03-03T08:16:01;0.71;65.65
69715;HTU21D;56981;53.532;49.398;2023-03-03T08:20:59;0.97;64.87
69715;HTU21D;56981;53.532;49.398;2023-03-03T08:23:26;0.79;65.08
69715;HTU21D;56981;53.532;49.398;2023-03-03T08:25:53;0.53;66.69
69715;HTU21D;56981;53.532;49.398;2023-03-03T08:28:20;0.59;67.20
69715;HTU21D;56981;53.532;49.398;2023-03-03T08:30:46;0.93;65.84
69715;HTU21D;56981;53.532;49.398;2023-03-03T08:33:14;1.17;64.58
69715;HTU21D;56981;53.532;49.398;2023-03-03T08:35:40;1.09;65.27
69715;HTU21D;56981;53.532;49.398;2023-03-03T08:38:07;1.17;64.15
69715;HTU21D;56981;53.532;49.398;2023-03-03T08:40:33;1.24;64.30
69715;HTU21D;56981;53.532;49.398;2023-03-03T08:43:00;1.01;65.22
69715;HTU21D;56981;53.532;49.398;2023-03-03T08:45:26;1.12;65.48
69715;HTU21D;56981;53.532;49.398;2023-03-03T08:47:53;1.20;65.08
69715;HTU21D;56981;53.532;49.398;2023-03-03T08:50:25;1.09;65.56
69715;HTU21D;56981;53.532;49.398;2023-03-03T08:52:51;1.26;65.36
69715;HTU21D;56981;53.532;49.398;2023-03-03T08:55:17;1.12;65.58
69715;HTU21D;56981;53.532;49.398;2023-03-03T08:57:44;1.32;64.64
69715;HTU21D;56981;53.532;49.398;2023-03-03T09:00:13;1.18;64.95
69715;HTU21D;56981;53.532;49.398;2023-03-03T09:02:39;1.35;65.14
69715;HTU21D;56981;53.532;49.398;2023-03-03T09:05:06;1.41;65.51
69715;HTU21D;56981;53.532;49.398;2023-03-03T09:07:32;1.65;64.55
69715;HTU21D;56981;53.532;49.398;2023-03-03T09:09:58;1.87;63.69
69715;HTU21D;56981;53.532;49.398;2023-03-03T09:12:38;1.57;64.76
69715;HTU21D;56981;53.532;49.398;2023-03-03T09:17:43;1.10;66.20
69715;HTU21D;56981;53.532;49.398;2023-03-03T09:20:31;0.80;67.42
69715;HTU21D;56981;53.532;49.398;2023-03-03T09:23:15;1.02;67.17
69715;HTU21D;56981;53.532;49.398;2023-03-03T09:25:45;1.06;66.52
69715;HTU21D;56981;53.532;49.398;2023-03-03T09:28:28;1.09;66.23
69715;HTU21D;56981;53.532;49.398;2023-03-03T09:31:00;1.20;66.47
69715;HTU21D;56981;53.532;49.398;2023-03-03T09:33:46;1.35;65.72
69715;HTU21D;56981;53.532;49.398;2023-03-03T09:36:35;1.31;66.04
69715;HTU21D;56981;53.532;49.398;2023-03-03T09:39:22;1.29;66.27
69715;HTU21D;56981;53.532;49.398;2023-03-03T09:42:10;1.28;65.78
69715;HTU21D;56981;53.532;49.398;2023-03-03T09:47:46;1.77;64.98
69715;HTU21D;56981;53.532;49.398;2023-03-03T09:58:37;1.85;63.15
69715;HTU21D;56981;53.532;49.398;2023-03-03T10:10:12;2.17;62.76
69715;HTU21D;56981;53.532;49.398;2023-03-03T10:12:47;2.12;62.86
69715;HTU21D;56981;53.532;49.398;2023-03-03T10:15:36;2.22;62.13
69715;HTU21D;56981;53.532;49.398;2023-03-03T10:18:23;2.53;61.18
69715;HTU21D;56981;53.532;49.398;2023-03-03T10:29:07;3.23;59.28
69715;HTU21D;56981;53.532;49.398;2023-03-03T10:39:40;2.53;61.91
69715;HTU21D;56981;53.532;49.398;2023-03-03T10:42:24;2.57;62.63
69715;HTU21D;56981;53.532;49.398;2023-03-03T10:45:12;2.73;62.20
69715;HTU21D;56981;53.532;49.398;2023-03-03T10:54:01;2.39;63.31
69715;HTU21D;56981;53.532;49.398;2023-03-03T10:59:55;2.54;62.06
69715;HTU21D;56981;53.532;49.398;2023-03-03T11:02:26;2.59;61.65
69715;HTU21D;56981;53.532;49.398;2023-03-03T11:08:00;2.54;62.18
69715;HTU21D;56981;53.532;49.398;2023-03-03T11:10:49;2.29;62.30
69715;HTU21D;56981;53.532;49.398;2023-03-03T11:24:28;2.44;61.38
69715;HTU21D;56981;53.532;49.398;2023-03-03T11:29:52;2.10;63.94
69715;HTU21D;56981;53.532;49.398;2023-03-03T11:35:27;2.40;62.92
69715;HTU21D;56981;53.532;49.398;2023-03-03T11:41:28;2.47;62.52
69715;HTU21D;56981;53.532;49.398;2023-03-03T11:43:53;2.60;61.86
69715;HTU21D;56981;53.532;49.398;2023-03-03T11:46:37;2.60;62.27
69715;HTU21D;56981;53.532;49.398;2023-03-03T11:57:22;2.61;62.97
69715;HTU21D;56981;53.532;49.398;2023-03-03T12:05:40;2.30;64.33
69715;HTU21D;56981;53.532;49.398;2023-03-03T12:22:25;2.13;65.95
69715;HTU21D;56981;53.532;49.398;2023-03-03T12:30:28;1.68;66.49
69715;HTU21D;56981;53.532;49.398;2023-03-03T12:38:21;1.25;68.29
69715;HTU21D;56981;53.532;49.398;2023-03-03T12:40:59;1.06;68.93
69715;HTU21D;56981;53.532;49.398;2023-03-03T12:43:38;0.91;69.61
69715;HTU21D;56981;53.532;49.398;2023-03-03T12:48:44;0.88;69.33
69715;HTU21D;56981;53.532;49.398;2023-03-03T12:51:27;0.80;70.39
69715;HTU21D;56981;53.532;49.398;2023-03-03T12:54:27;0.67;70.51
69715;HTU21D;56981;53.532;49.398;2023-03-03T12:57:20;0.47;70.86
69715;HTU21D;56981;53.532;49.398;2023-03-03T13:03:08;0.27;71.87
69715;HTU21D;56981;53.532;49.398;2023-03-03T13:05:54;0.18;71.93
69715;HTU21D;56981;53.532;49.398;2023-03-03T13:15:02;-0.07;73.73
69715;HTU21D;56981;53.532;49.398;2023-03-03T13:20:37;-0.16;74.28
69715;HTU21D;56981;53.532;49.398;2023-03-03T13:23:21;-0.17;74.40
69715;HTU21D;56981;53.532;49.398;2023-03-03T13:31:26;-0.39;74.75
69715;HTU21D;56981;53.532;49.398;2023-03-03T13:33:56;-0.34;75.54
69715;HTU21D;56981;53.532;49.398;2023-03-03T13:36:27;-0.31;76.22
69715;HTU21D;56981;53.532;49.398;2023-03-03T13:39:17;-0.37;76.17
69715;HTU21D;56981;53.532;49.398;2023-03-03T13:41:52;-0.46;75.58
69715;HTU21D;56981;53.532;49.398;2023-03-03T13:44:28;-0.57;76.08
69715;HTU21D;56981;53.532;49.398;2023-03-03T13:52:55;-0.66;76.30
69715;HTU21D;56981;53.532;49.398;2023-03-03T13:55:28;-0.74;76.98
69715;HTU21D;56981;53.532;49.398;2023-03-03T13:58:21;-0.75;76.34
69715;HTU21D;56981;53.532;49.398;2023-03-03T14:03:26;-0.74;76.05
69715;HTU21D;56981;53.532;49.398;2023-03-03T14:06:08;-0.73;76.28
69715;HTU21D;56981;53.532;49.398;2023-03-03T14:11:30;-0.76;76.54
69715;HTU21D;56981;53.532;49.398;2023-03-03T14:17:01;-0.83;76.50
69715;HTU21D;56981;53.532;49.398;2023-03-03T14:22:20;-0.84;76.63
69715;HTU21D;56981;53.532;49.398;2023-03-03T14:25:02;-0.86;76.65
69715;HTU21D;56981;53.532;49.398;2023-03-03T14:35:38;-0.86;77.15
69715;HTU21D;56981;53.532;49.398;2023-03-03T14:41:12;-0.94;77.53
69715;HTU21D;56981;53.532;49.398;2023-03-03T14:43:40;-1.02;77.96
69715;HTU21D;56981;53.532;49.398;2023-03-03T14:48:59;-1.17;78.80
69715;HTU21D;56981;53.532;49.398;2023-03-03T14:54:00;-1.26;79.38
69715;HTU21D;56981;53.532;49.398;2023-03-03T14:56:33;-1.29;79.50
69715;HTU21D;56981;53.532;49.398;2023-03-03T14:59:19;-1.33;79.70
69715;HTU21D;56981;53.532;49.398;2023-03-03T15:01:46;-1.34;79.95
69715;HTU21D;56981;53.532;49.398;2023-03-03T15:04:26;-1.35;79.99
69715;HTU21D;56981;53.532;49.398;2023-03-03T15:06:54;-1.36;80.20
69715;HTU21D;56981;53.532;49.398;2023-03-03T15:09:39;-1.35;80.24
69715;HTU21D;56981;53.532;49.398;2023-03-03T15:12:24;-1.39;80.32
69715;HTU21D;56981;53.532;49.398;2023-03-03T15:15:20;-1.39;80.69
69715;HTU21D;56981;53.532;49.398;2023-03-03T15:23:24;-1.44;81.16
69715;HTU21D;56981;53.532;49.398;2023-03-03T15:26:09;-1.44;81.33
69715;HTU21D;56981;53.532;49.398;2023-03-03T15:29:03;-1.45;81.55
69715;HTU21D;56981;53.532;49.398;2023-03-03T15:31:39;-1.44;82.01
69715;HTU21D;56981;53.532;49.398;2023-03-03T15:34:20;-1.38;81.97
69715;HTU21D;56981;53.532;49.398;2023-03-03T15:36:52;-1.36;82.03
69715;HTU21D;56981;53.532;49.398;2023-03-03T15:42:03;-1.26;82.03
69715;HTU21D;56981;53.532;49.398;2023-03-03T15:44:38;-1.23;81.88
69715;HTU21D;56981;53.532;49.398;2023-03-03T16:01:31;-1.09;82.54
69715;HTU21D;56981;53.532;49.398;2023-03-03T16:04:00;-1.05;82.71
69715;HTU21D;56981;53.532;49.398;2023-03-03T16:06:44;-1.01;82.77
69715;HTU21D;56981;53.532;49.398;2023-03-03T16:12:30;-0.90;82.45
69715;HTU21D;56981;53.532;49.398;2023-03-03T16:23:46;-0.91;83.14
69715;HTU21D;56981;53.532;49.398;2023-03-03T16:32:24;-1.02;84.33
69715;HTU21D;56981;53.532;49.398;2023-03-03T16:38:10;-1.03;84.48
69715;HTU21D;56981;53.532;49.398;2023-03-03T16:40:56;-1.04;84.77
69715;HTU21D;56981;53.532;49.398;2023-03-03T16:45:49;-1.09;85.12
69715;HTU21D;56981;53.532;49.398;2023-03-03T16:51:38;-1.09;85.32
69715;HTU21D;56981;53.532;49.398;2023-03-03T16:54:19;-1.14;85.80
69715;HTU21D;56981;53.532;49.398;2023-03-03T16:57:21;-1.18;85.97
69715;HTU21D;56981;53.532;49.398;2023-03-03T17:05:19;-1.25;86.84
69715;HTU21D;56981;53.532;49.398;2023-03-03T17:11:03;-1.32;87.19
69715;HTU21D;56981;53.532;49.398;2023-03-03T17:16:22;-1.41;87.44
69715;HTU21D;56981;53.532;49.398;2023-03-03T17:19:24;-1.46;88.01
69715;HTU21D;56981;53.532;49.398;2023-03-03T17:22:12;-1.49;88.51
69715;HTU21D;56981;53.532;49.398;2023-03-03T17:30:38;-1.57;89.50
69715;HTU21D;56981;53.532;49.398;2023-03-03T17:44:40;-1.24;89.44
69715;HTU21D;56981;53.532;49.398;2023-03-03T17:47:09;-1.24;89.02
69715;HTU21D;56981;53.532;49.398;2023-03-03T17:50:00;-1.28;89.03
69715;HTU21D;56981;53.532;49.398;2023-03-03T17:55:46;-1.35;89.63
69715;HTU21D;56981;53.532;49.398;2023-03-03T18:01:32;-1.40;89.73
69715;HTU21D;56981;53.532;49.398;2023-03-03T18:12:14;-1.31;90.30
69715;HTU21D;56981;53.532;49.398;2023-03-03T18:17:51;-1.20;89.84
69715;HTU21D;56981;53.532;49.398;2023-03-03T18:26:02;-1.16;89.47
69715;HTU21D;56981;53.532;49.398;2023-03-03T18:31:26;-1.16;89.86
69715;HTU21D;56981;53.532;49.398;2023-03-03T18:38:59;-1.13;90.28
69715;HTU21D;56981;53.532;49.398;2023-03-03T18:41:28;-1.11;90.24
69715;HTU21D;56981;53.532;49.398;2023-03-03T18:43:57;-1.11;90.45
69715;HTU21D;56981;53.532;49.398;2023-03-03T18:48:53;-1.05;90.74
69715;HTU21D;56981;53.532;49.398;2023-03-03T19:04:51;-0.64;90.10
69715;HTU21D;56981;53.532;49.398;2023-03-03T19:21:35;-0.52;89.09
69715;HTU21D;56981;53.532;49.398;2023-03-03T19:27:27;-0.53;89.28
69715;HTU21D;56981;53.532;49.398;2023-03-03T19:30:12;-0.52;89.43
69715;HTU21D;56981;53.532;49.398;2023-03-03T19:36:16;-0.52;89.10
69715;HTU21D;56981;53.532;49.398;2023-03-03T19:47:05;-0.62;89.17
69715;HTU21D;56981;53.532;49.398;2023-03-03T19:52:42;-0.58;89.43
69715;HTU21D;56981;53.532;49.398;2023-03-03T20:00:48;-0.50;88.86
69715;HTU21D;56981;53.532;49.398;2023-03-03T20:06:25;-0.52;88.66
69715;HTU21D;56981;53.532;49.398;2023-03-03T20:14:33;-0.56;89.18
69715;HTU21D;56981;53.532;49.398;2023-03-03T20:25:35;-0.47;89.02
69715;HTU21D;56981;53.532;49.398;2023-03-03T20:31:12;-0.45;88.66
69715;HTU21D;56981;53.532;49.398;2023-03-03T20:36:18;-0.44;88.60
69715;HTU21D;56981;53.532;49.398;2023-03-03T20:39:06;-0.45;88.42
69715;HTU21D;56981;53.532;49.398;2023-03-03T20:47:26;-0.57;88.31
69715;HTU21D;56981;53.532;49.398;2023-03-03T20:52:46;-0.62;88.19
69715;HTU21D;56981;53.532;49.398;2023-03-03T20:58:36;-0.66;88.42
69715;HTU21D;56981;53.532;49.398;2023-03-03T21:01:07;-0.64;88.39
69715;HTU21D;56981;53.532;49.398;2023-03-03T21:03:37;-0.61;88.43
69715;HTU21D;56981;53.532;49.398;2023-03-03T21:08:49;-0.57;88.00
69715;HTU21D;56981;53.532;49.398;2023-03-03T21:11:23;-0.56;87.80
69715;HTU21D;56981;53.532;49.398;2023-03-03T21:13:59;-0.55;87.69
69715;HTU21D;56981;53.532;49.398;2023-03-03T21:16:36;-0.52;87.52
69715;HTU21D;56981;53.532;49.398;2023-03-03T21:19:09;-0.51;87.26
69715;HTU21D;56981;53.532;49.398;2023-03-03T21:21:37;-0.51;87.29
69715;HTU21D;56981;53.532;49.398;2023-03-03T21:24:05;-0.45;87.03
69715;HTU21D;56981;53.532;49.398;2023-03-03T21:26:55;-0.43;86.90
69715;HTU21D;56981;53.532;49.398;2023-03-03T21:29:26;-0.38;86.60
69715;HTU21D;56981;53.532;49.398;2023-03-03T21:31:57;-0.35;86.56
69715;HTU21D;56981;53.532;49.398;2023-03-03T21:36:50;-0.31;86.48
69715;HTU21D;56981;53.532;49.398;2023-03-03T21:39:31;-0.35;87.71
69715;HTU21D;56981;53.532;49.398;2023-03-03T21:44:46;-0.38;89.31
69715;HTU21D;56981;53.532;49.398;2023-03-03T21:47:18;-0.36;89.05
69715;HTU21D;56981;53.532;49.398;2023-03-03T21:49:46;-0.32;88.71
69715;HTU21D;56981;53.532;49.398;2023-03-03T21:52:14;-0.35;88.60
69715;HTU21D;56981;53.532;49.398;2023-03-03T21:54:44;-0.40;88.64
69715;HTU21D;56981;53.532;49.398;2023-03-03T21:57:11;-0.38;88.56
69715;HTU21D;56981;53.532;49.398;2023-03-03T21:59:38;-0.42;88.44
69715;HTU21D;56981;53.532;49.398;2023-03-03T22:02:04;-0.44;88.06
69715;HTU21D;56981;53.532;49.398;2023-03-03T22:04:31;-0.41;87.68
69715;HTU21D;56981;53.532;49.398;2023-03-03T22:06:58;-0.40;87.22
69715;HTU21D;56981;53.532;49.398;2023-03-03T22:09:24;-0.39;86.84
69715;HTU21D;56981;53.532;49.398;2023-03-03T22:11:50;-0.37;86.41
69715;HTU21D;56981;53.532;49.398;2023-03-03T22:14:16;-0.38;86.08
69715;HTU21D;56981;53.532;49.398;2023-03-03T22:16:42;-0.34;86.00